sensor_id;sensor_type;location;lat;lon;timestamp;P1;durP1;ratioP1;P2;durP2;ratioP2
3613;SDS011;1821;50.936;6.854;2023-04-24T00:00:40;2.25;;;1.17;;
3613;SDS011;1821;50.936;6.854;2023-04-24T00:01:22;2.70;;;1.30;;
3613;SDS011;1821;50.936;6.854;2023-04-24T00:02:05;2.45;;;1.20;;
3613;SDS011;1821;50.936;6.854;2023-04-24T00:02:48;2.40;;;1.20;;
3613;SDS011;1821;50.936;6.854;2023-04-24T00:03:32;3.30;;;1.15;;
3613;SDS011;1821;50.936;6.854;2023-04-24T00:04:14;3.38;;;1.40;;
3613;SDS011;1821;50.936;6.854;2023-04-24T00:04:58;2.10;;;1.30;;
3613;SDS011;1821;50.936;6.854;2023-04-24T00:05:46;2.90;;;1.20;;
3613;SDS011;1821;50.936;6.854;2023-04-24T00:06:30;3.03;;;1.30;;
3613;SDS011;1821;50.936;6.854;2023-04-24T00:07:15;4.38;;;1.50;;
3613;SDS011;1821;50.936;6.854;2023-04-24T00:08:01;2.50;;;1.50;;
3613;SDS011;1821;50.936;6.854;2023-04-24T00:08:45;2.03;;;1.20;;
3613;SDS011;1821;50.936;6.854;2023-04-24T00:09:27;3.10;;;1.50;;
3613;SDS011;1821;50.936;6.854;2023-04-24T00:10:10;2.50;;;1.40;;
3613;SDS011;1821;50.936;6.854;2023-04-24T00:10:52;2.30;;;1.35;;
3613;SDS011;1821;50.936;6.854;2023-04-24T00:11:34;2.30;;;1.30;;
3613;SDS011;1821;50.936;6.854;2023-04-24T00:12:17;2.10;;;1.30;;
3613;SDS011;1821;50.936;6.854;2023-04-24T00:12:58;2.00;;;1.17;;
3613;SDS011;1821;50.936;6.854;2023-04-24T00:13:40;1.98;;;1.13;;
3613;SDS011;1821;50.936;6.854;2023-04-24T00:14:22;2.90;;;1.23;;
3613;SDS011;1821;50.936;6.854;2023-04-24T00:15:04;2.60;;;1.30;;
3613;SDS011;1821;50.936;6.854;2023-04-24T00:15:47;2.30;;;1.30;;
3613;SDS011;1821;50.936;6.854;2023-04-24T00:16:29;3.00;;;1.40;;
3613;SDS011;1821;50.936;6.854;2023-04-24T00:17:11;3.20;;;1.60;;
3613;SDS011;1821;50.936;6.854;2023-04-24T00:17:53;2.50;;;1.48;;
3613;SDS011;1821;50.936;6.854;2023-04-24T00:18:35;3.30;;;1.40;;
3613;SDS011;1821;50.936;6.854;2023-04-24T00:19:17;3.83;;;1.40;;
3613;SDS011;1821;50.936;6.854;2023-04-24T00:19:58;3.05;;;1.60;;
3613;SDS011;1821;50.936;6.854;2023-04-24T00:20:40;4.28;;;1.60;;
3613;SDS011;1821;50.936;6.854;2023-04-24T00:21:22;2.53;;;1.42;;
3613;SDS011;1821;50.936;6.854;2023-04-24T00:22:07;2.80;;;1.50;;
3613;SDS011;1821;50.936;6.854;2023-04-24T00:22:49;3.70;;;1.80;;
3613;SDS011;1821;50.936;6.854;2023-04-24T00:23:31;3.75;;;1.80;;
3613;SDS011;1821;50.936;6.854;2023-04-24T00:24:12;3.60;;;1.70;;
3613;SDS011;1821;50.936;6.854;2023-04-24T00:24:54;3.65;;;1.38;;
3613;SDS011;1821;50.936;6.854;2023-04-24T00:25:36;2.33;;;1.30;;
3613;SDS011;1821;50.936;6.854;2023-04-24T00:26:18;2.85;;;1.38;;
3613;SDS011;1821;50.936;6.854;2023-04-24T00:27:00;3.05;;;1.40;;
3613;SDS011;1821;50.936;6.854;2023-04-24T00:27:43;2.90;;;1.40;;
3613;SDS011;1821;50.936;6.854;2023-04-24T00:28:25;3.78;;;1.70;;
3613;SDS011;1821;50.936;6.854;2023-04-24T00:29:07;3.53;;;1.40;;
3613;SDS011;1821;50.936;6.854;2023-04-24T00:29:49;2.20;;;1.35;;
3613;SDS011;1821;50.936;6.854;2023-04-24T00:30:31;3.00;;;1.30;;
3613;SDS011;1821;50.936;6.854;2023-04-24T00:31:15;2.63;;;1.40;;
3613;SDS011;1821;50.936;6.854;2023-04-24T00:31:57;3.45;;;1.35;;
3613;SDS011;1821;50.936;6.854;2023-04-24T00:32:39;2.30;;;1.40;;
3613;SDS011;1821;50.936;6.854;2023-04-24T00:33:21;2.53;;;1.37;;
3613;SDS011;1821;50.936;6.854;2023-04-24T00:34:03;3.80;;;1.60;;
3613;SDS011;1821;50.936;6.854;2023-04-24T00:34:46;3.75;;;2.03;;
3613;SDS011;1821;50.936;6.854;2023-04-24T00:35:28;4.10;;;2.10;;
3613;SDS011;1821;50.936;6.854;2023-04-24T00:36:12;4.55;;;1.90;;
3613;SDS011;1821;50.936;6.854;2023-04-24T00:36:54;4.10;;;1.80;;
3613;SDS011;1821;50.936;6.854;2023-04-24T00:37:37;3.08;;;1.55;;
3613;SDS011;1821;50.936;6.854;2023-04-24T00:38:18;2.85;;;1.60;;
3613;SDS011;1821;50.936;6.854;2023-04-24T00:39:00;3.00;;;1.60;;
3613;SDS011;1821;50.936;6.854;2023-04-24T00:39:45;3.45;;;1.60;;
3613;SDS011;1821;50.936;6.854;2023-04-24T00:40:28;2.80;;;1.70;;
3613;SDS011;1821;50.936;6.854;2023-04-24T00:41:10;2.97;;;1.65;;
3613;SDS011;1821;50.936;6.854;2023-04-24T00:41:52;3.85;;;1.58;;
3613;SDS011;1821;50.936;6.854;2023-04-24T00:42:37;2.60;;;1.50;;
3613;SDS011;1821;50.936;6.854;2023-04-24T00:43:21;3.10;;;1.60;;
3613;SDS011;1821;50.936;6.854;2023-04-24T00:44:03;2.97;;;1.60;;
3613;SDS011;1821;50.936;6.854;2023-04-24T00:44:45;2.80;;;1.50;;
3613;SDS011;1821;50.936;6.854;2023-04-24T00:45:27;3.60;;;1.80;;
3613;SDS011;1821;50.936;6.854;2023-04-24T00:46:10;4.40;;;1.92;;
3613;SDS011;1821;50.936;6.854;2023-04-24T00:46:52;3.60;;;1.60;;
3613;SDS011;1821;50.936;6.854;2023-04-24T00:47:36;3.20;;;1.60;;
3613;SDS011;1821;50.936;6.854;2023-04-24T00:48:18;2.20;;;1.30;;
3613;SDS011;1821;50.936;6.854;2023-04-24T00:49:01;2.90;;;1.70;;
3613;SDS011;1821;50.936;6.854;2023-04-24T00:49:44;3.10;;;1.60;;
3613;SDS011;1821;50.936;6.854;2023-04-24T00:50:28;3.97;;;1.90;;
3613;SDS011;1821;50.936;6.854;2023-04-24T00:51:11;3.00;;;1.90;;
3613;SDS011;1821;50.936;6.854;2023-04-24T00:51:53;3.05;;;1.70;;
3613;SDS011;1821;50.936;6.854;2023-04-24T00:52:35;3.20;;;1.70;;
3613;SDS011;1821;50.936;6.854;2023-04-24T00:53:18;3.00;;;1.60;;
3613;SDS011;1821;50.936;6.854;2023-04-24T00:54:00;2.83;;;1.40;;
3613;SDS011;1821;50.936;6.854;2023-04-24T00:54:45;5.18;;;2.30;;
3613;SDS011;1821;50.936;6.854;2023-04-24T00:55:27;3.90;;;1.55;;
3613;SDS011;1821;50.936;6.854;2023-04-24T00:56:09;3.50;;;1.80;;
3613;SDS011;1821;50.936;6.854;2023-04-24T00:56:52;3.50;;;1.77;;
3613;SDS011;1821;50.936;6.854;2023-04-24T00:57:34;2.70;;;1.65;;
3613;SDS011;1821;50.936;6.854;2023-04-24T00:58:16;2.28;;;1.58;;
3613;SDS011;1821;50.936;6.854;2023-04-24T00:58:59;2.70;;;1.40;;
3613;SDS011;1821;50.936;6.854;2023-04-24T00:59:41;2.65;;;1.38;;
3613;SDS011;1821;50.936;6.854;2023-04-24T01:00:25;3.05;;;1.50;;
3613;SDS011;1821;50.936;6.854;2023-04-24T01:01:07;2.65;;;1.30;;
3613;SDS011;1821;50.936;6.854;2023-04-24T01:01:51;3.65;;;1.70;;
3613;SDS011;1821;50.936;6.854;2023-04-24T01:02:32;3.08;;;1.80;;
3613;SDS011;1821;50.936;6.854;2023-04-24T01:03:15;2.85;;;1.60;;
3613;SDS011;1821;50.936;6.854;2023-04-24T01:04:00;3.00;;;1.60;;
3613;SDS011;1821;50.936;6.854;2023-04-24T01:04:44;3.20;;;1.50;;
3613;SDS011;1821;50.936;6.854;2023-04-24T01:05:26;2.00;;;1.35;;
3613;SDS011;1821;50.936;6.854;2023-04-24T01:06:08;2.40;;;1.48;;
3613;SDS011;1821;50.936;6.854;2023-04-24T01:06:51;2.97;;;1.50;;
3613;SDS011;1821;50.936;6.854;2023-04-24T01:07:34;2.78;;;1.80;;
3613;SDS011;1821;50.936;6.854;2023-04-24T01:08:16;3.60;;;1.75;;
3613;SDS011;1821;50.936;6.854;2023-04-24T01:08:58;3.80;;;1.60;;
3613;SDS011;1821;50.936;6.854;2023-04-24T01:09:41;3.90;;;1.50;;
3613;SDS011;1821;50.936;6.854;2023-04-24T01:10:25;2.50;;;1.50;;
3613;SDS011;1821;50.936;6.854;2023-04-24T01:11:10;3.28;;;1.70;;
3613;SDS011;1821;50.936;6.854;2023-04-24T01:11:52;3.10;;;1.70;;
3613;SDS011;1821;50.936;6.854;2023-04-24T01:12:35;3.50;;;1.75;;
3613;SDS011;1821;50.936;6.854;2023-04-24T01:13:18;2.50;;;1.60;;
3613;SDS011;1821;50.936;6.854;2023-04-24T01:14:01;3.30;;;1.50;;
3613;SDS011;1821;50.936;6.854;2023-04-24T01:14:43;2.70;;;1.60;;
3613;SDS011;1821;50.936;6.854;2023-04-24T01:15:25;3.72;;;1.67;;
3613;SDS011;1821;50.936;6.854;2023-04-24T01:16:07;3.75;;;1.70;;
3613;SDS011;1821;50.936;6.854;2023-04-24T01:16:52;2.83;;;1.55;;
3613;SDS011;1821;50.936;6.854;2023-04-24T01:17:33;2.92;;;1.63;;
3613;SDS011;1821;50.936;6.854;2023-04-24T01:18:16;3.30;;;1.75;;
3613;SDS011;1821;50.936;6.854;2023-04-24T01:18:58;3.03;;;1.65;;
3613;SDS011;1821;50.936;6.854;2023-04-24T01:19:42;2.75;;;1.70;;
3613;SDS011;1821;50.936;6.854;2023-04-24T01:20:27;2.40;;;1.70;;
3613;SDS011;1821;50.936;6.854;2023-04-24T01:21:11;3.50;;;2.00;;
3613;SDS011;1821;50.936;6.854;2023-04-24T01:21:57;3.38;;;1.88;;
3613;SDS011;1821;50.936;6.854;2023-04-24T01:22:43;3.53;;;1.60;;
3613;SDS011;1821;50.936;6.854;2023-04-24T01:23:25;3.03;;;1.92;;
3613;SDS011;1821;50.936;6.854;2023-04-24T01:24:07;3.58;;;2.50;;
3613;SDS011;1821;50.936;6.854;2023-04-24T01:24:50;3.58;;;2.58;;
3613;SDS011;1821;50.936;6.854;2023-04-24T01:25:35;3.53;;;2.75;;
3613;SDS011;1821;50.936;6.854;2023-04-24T01:26:18;3.83;;;2.90;;
3613;SDS011;1821;50.936;6.854;2023-04-24T01:27:01;3.85;;;2.92;;
3613;SDS011;1821;50.936;6.854;2023-04-24T01:27:43;5.22;;;2.72;;
3613;SDS011;1821;50.936;6.854;2023-04-24T01:28:25;4.75;;;3.00;;
3613;SDS011;1821;50.936;6.854;2023-04-24T01:29:07;4.00;;;3.03;;
3613;SDS011;1821;50.936;6.854;2023-04-24T01:29:53;4.97;;;3.30;;
3613;SDS011;1821;50.936;6.854;2023-04-24T01:30:35;5.05;;;3.40;;
3613;SDS011;1821;50.936;6.854;2023-04-24T01:31:17;5.68;;;3.60;;
3613;SDS011;1821;50.936;6.854;2023-04-24T01:32:00;6.47;;;3.78;;
3613;SDS011;1821;50.936;6.854;2023-04-24T01:32:42;4.97;;;3.55;;
3613;SDS011;1821;50.936;6.854;2023-04-24T01:33:27;4.72;;;3.42;;
3613;SDS011;1821;50.936;6.854;2023-04-24T01:34:10;4.30;;;3.10;;
3613;SDS011;1821;50.936;6.854;2023-04-24T01:34:52;4.40;;;3.67;;
3613;SDS011;1821;50.936;6.854;2023-04-24T01:35:35;5.03;;;3.90;;
3613;SDS011;1821;50.936;6.854;2023-04-24T01:36:20;5.15;;;4.00;;
3613;SDS011;1821;50.936;6.854;2023-04-24T01:37:07;5.35;;;3.70;;
3613;SDS011;1821;50.936;6.854;2023-04-24T01:37:49;5.10;;;3.70;;
3613;SDS011;1821;50.936;6.854;2023-04-24T01:38:31;5.28;;;3.90;;
3613;SDS011;1821;50.936;6.854;2023-04-24T01:39:13;5.88;;;3.58;;
3613;SDS011;1821;50.936;6.854;2023-04-24T01:39:56;5.20;;;3.80;;
3613;SDS011;1821;50.936;6.854;2023-04-24T01:40:39;5.40;;;3.55;;
3613;SDS011;1821;50.936;6.854;2023-04-24T01:41:21;4.22;;;3.50;;
3613;SDS011;1821;50.936;6.854;2023-04-24T01:42:05;4.30;;;3.40;;
3613;SDS011;1821;50.936;6.854;2023-04-24T01:42:48;4.85;;;3.60;;
3613;SDS011;1821;50.936;6.854;2023-04-24T01:43:30;6.80;;;3.80;;
3613;SDS011;1821;50.936;6.854;2023-04-24T01:44:15;5.30;;;3.80;;
3613;SDS011;1821;50.936;6.854;2023-04-24T01:44:57;5.00;;;3.80;;
3613;SDS011;1821;50.936;6.854;2023-04-24T01:45:41;5.78;;;3.80;;
3613;SDS011;1821;50.936;6.854;2023-04-24T01:46:24;4.88;;;3.58;;
3613;SDS011;1821;50.936;6.854;2023-04-24T01:47:07;4.55;;;3.47;;
3613;SDS011;1821;50.936;6.854;2023-04-24T01:47:50;6.00;;;3.88;;
3613;SDS011;1821;50.936;6.854;2023-04-24T01:48:32;5.28;;;3.53;;
3613;SDS011;1821;50.936;6.854;2023-04-24T01:49:15;4.72;;;3.50;;
3613;SDS011;1821;50.936;6.854;2023-04-24T01:49:57;6.57;;;3.80;;
3613;SDS011;1821;50.936;6.854;2023-04-24T01:50:41;5.65;;;3.65;;
3613;SDS011;1821;50.936;6.854;2023-04-24T01:51:24;4.30;;;3.40;;
3613;SDS011;1821;50.936;6.854;2023-04-24T01:52:06;4.50;;;3.50;;
3613;SDS011;1821;50.936;6.854;2023-04-24T01:52:49;4.55;;;3.42;;
3613;SDS011;1821;50.936;6.854;2023-04-24T01:53:31;7.05;;;3.72;;
3613;SDS011;1821;50.936;6.854;2023-04-24T01:54:15;4.70;;;3.65;;
3613;SDS011;1821;50.936;6.854;2023-04-24T01:54:59;5.35;;;3.92;;
3613;SDS011;1821;50.936;6.854;2023-04-24T01:55:41;4.90;;;4.20;;
3613;SDS011;1821;50.936;6.854;2023-04-24T01:56:24;5.32;;;3.97;;
3613;SDS011;1821;50.936;6.854;2023-04-24T01:57:06;6.50;;;3.70;;
3613;SDS011;1821;50.936;6.854;2023-04-24T01:57:49;5.38;;;3.95;;
3613;SDS011;1821;50.936;6.854;2023-04-24T01:58:33;5.68;;;4.63;;
3613;SDS011;1821;50.936;6.854;2023-04-24T01:59:15;5.53;;;4.53;;
3613;SDS011;1821;50.936;6.854;2023-04-24T01:59:59;6.22;;;4.10;;
3613;SDS011;1821;50.936;6.854;2023-04-24T02:00:41;8.70;;;4.40;;
3613;SDS011;1821;50.936;6.854;2023-04-24T02:01:23;6.57;;;4.15;;
3613;SDS011;1821;50.936;6.854;2023-04-24T02:02:06;5.88;;;4.22;;
3613;SDS011;1821;50.936;6.854;2023-04-24T02:02:50;5.78;;;4.65;;
3613;SDS011;1821;50.936;6.854;2023-04-24T02:03:33;7.30;;;5.38;;
3613;SDS011;1821;50.936;6.854;2023-04-24T02:04:15;8.23;;;5.32;;
3613;SDS011;1821;50.936;6.854;2023-04-24T02:04:57;7.82;;;5.05;;
3613;SDS011;1821;50.936;6.854;2023-04-24T02:05:40;7.95;;;5.05;;
3613;SDS011;1821;50.936;6.854;2023-04-24T02:06:24;5.82;;;4.75;;
3613;SDS011;1821;50.936;6.854;2023-04-24T02:07:06;8.00;;;5.00;;
3613;SDS011;1821;50.936;6.854;2023-04-24T02:07:49;6.93;;;4.75;;
3613;SDS011;1821;50.936;6.854;2023-04-24T02:08:31;5.80;;;5.10;;
3613;SDS011;1821;50.936;6.854;2023-04-24T02:09:15;6.80;;;4.95;;
3613;SDS011;1821;50.936;6.854;2023-04-24T02:09:57;7.28;;;4.95;;
3613;SDS011;1821;50.936;6.854;2023-04-24T02:10:39;7.10;;;5.43;;
3613;SDS011;1821;50.936;6.854;2023-04-24T02:11:21;7.45;;;5.10;;
3613;SDS011;1821;50.936;6.854;2023-04-24T02:12:03;7.07;;;5.00;;
3613;SDS011;1821;50.936;6.854;2023-04-24T02:12:45;6.18;;;5.25;;
3613;SDS011;1821;50.936;6.854;2023-04-24T02:13:29;7.50;;;5.60;;
3613;SDS011;1821;50.936;6.854;2023-04-24T02:14:11;6.22;;;5.60;;
3613;SDS011;1821;50.936;6.854;2023-04-24T02:14:55;6.07;;;4.75;;
3613;SDS011;1821;50.936;6.854;2023-04-24T02:15:37;7.28;;;5.25;;
3613;SDS011;1821;50.936;6.854;2023-04-24T02:16:19;6.40;;;5.05;;
3613;SDS011;1821;50.936;6.854;2023-04-24T02:17:01;7.35;;;5.43;;
3613;SDS011;1821;50.936;6.854;2023-04-24T02:17:45;9.70;;;5.97;;
3613;SDS011;1821;50.936;6.854;2023-04-24T02:18:27;8.13;;;5.72;;
3613;SDS011;1821;50.936;6.854;2023-04-24T02:19:09;7.57;;;5.32;;
3613;SDS011;1821;50.936;6.854;2023-04-24T02:19:51;8.93;;;5.40;;
3613;SDS011;1821;50.936;6.854;2023-04-24T02:20:33;7.00;;;5.57;;
3613;SDS011;1821;50.936;6.854;2023-04-24T02:21:16;6.78;;;5.40;;
3613;SDS011;1821;50.936;6.854;2023-04-24T02:21:58;8.10;;;5.22;;
3613;SDS011;1821;50.936;6.854;2023-04-24T02:22:40;6.88;;;4.60;;
3613;SDS011;1821;50.936;6.854;2023-04-24T02:23:22;6.50;;;5.22;;
3613;SDS011;1821;50.936;6.854;2023-04-24T02:24:04;6.90;;;5.72;;
3613;SDS011;1821;50.936;6.854;2023-04-24T02:24:46;6.85;;;5.57;;
3613;SDS011;1821;50.936;6.854;2023-04-24T02:25:28;5.80;;;4.93;;
3613;SDS011;1821;50.936;6.854;2023-04-24T02:26:10;5.97;;;5.38;;
3613;SDS011;1821;50.936;6.854;2023-04-24T02:26:53;6.05;;;5.03;;
3613;SDS011;1821;50.936;6.854;2023-04-24T02:27:37;8.07;;;5.25;;
3613;SDS011;1821;50.936;6.854;2023-04-24T02:28:19;11.18;;;5.20;;
3613;SDS011;1821;50.936;6.854;2023-04-24T02:29:01;10.40;;;5.20;;
3613;SDS011;1821;50.936;6.854;2023-04-24T02:29:43;7.40;;;5.10;;
3613;SDS011;1821;50.936;6.854;2023-04-24T02:30:26;6.85;;;5.10;;
3613;SDS011;1821;50.936;6.854;2023-04-24T02:31:10;7.75;;;5.65;;
3613;SDS011;1821;50.936;6.854;2023-04-24T02:31:52;6.50;;;5.47;;
3613;SDS011;1821;50.936;6.854;2023-04-24T02:32:34;6.45;;;5.18;;
3613;SDS011;1821;50.936;6.854;2023-04-24T02:33:17;5.90;;;4.90;;
3613;SDS011;1821;50.936;6.854;2023-04-24T02:33:59;8.43;;;5.00;;
3613;SDS011;1821;50.936;6.854;2023-04-24T02:34:41;7.03;;;5.32;;
3613;SDS011;1821;50.936;6.854;2023-04-24T02:35:25;7.57;;;5.70;;
3613;SDS011;1821;50.936;6.854;2023-04-24T02:36:07;6.95;;;5.80;;
3613;SDS011;1821;50.936;6.854;2023-04-24T02:36:48;7.60;;;5.35;;
3613;SDS011;1821;50.936;6.854;2023-04-24T02:37:30;9.30;;;6.53;;
3613;SDS011;1821;50.936;6.854;2023-04-24T02:38:12;7.60;;;5.50;;
3613;SDS011;1821;50.936;6.854;2023-04-24T02:38:54;9.48;;;6.07;;
3613;SDS011;1821;50.936;6.854;2023-04-24T02:39:36;8.05;;;6.45;;
3613;SDS011;1821;50.936;6.854;2023-04-24T02:40:21;8.90;;;6.53;;
3613;SDS011;1821;50.936;6.854;2023-04-24T02:41:03;9.02;;;6.25;;
3613;SDS011;1821;50.936;6.854;2023-04-24T02:41:47;7.50;;;6.15;;
3613;SDS011;1821;50.936;6.854;2023-04-24T02:42:29;7.75;;;6.20;;
3613;SDS011;1821;50.936;6.854;2023-04-24T02:43:11;7.50;;;6.10;;
3613;SDS011;1821;50.936;6.854;2023-04-24T02:43:55;7.97;;;6.53;;
3613;SDS011;1821;50.936;6.854;2023-04-24T02:44:37;8.55;;;6.60;;
3613;SDS011;1821;50.936;6.854;2023-04-24T02:45:19;9.10;;;7.05;;
3613;SDS011;1821;50.936;6.854;2023-04-24T02:46:01;9.80;;;6.60;;
3613;SDS011;1821;50.936;6.854;2023-04-24T02:46:44;8.20;;;5.90;;
3613;SDS011;1821;50.936;6.854;2023-04-24T02:47:26;7.00;;;6.20;;
3613;SDS011;1821;50.936;6.854;2023-04-24T02:48:08;8.60;;;6.25;;
3613;SDS011;1821;50.936;6.854;2023-04-24T02:48:50;10.98;;;6.88;;
3613;SDS011;1821;50.936;6.854;2023-04-24T02:49:34;8.82;;;6.55;;
3613;SDS011;1821;50.936;6.854;2023-04-24T02:50:15;8.93;;;6.63;;
3613;SDS011;1821;50.936;6.854;2023-04-24T02:50:58;9.55;;;6.40;;
3613;SDS011;1821;50.936;6.854;2023-04-24T02:51:42;10.85;;;6.95;;
3613;SDS011;1821;50.936;6.854;2023-04-24T02:52:24;8.38;;;6.40;;
3613;SDS011;1821;50.936;6.854;2023-04-24T02:53:06;9.55;;;7.03;;
3613;SDS011;1821;50.936;6.854;2023-04-24T02:53:48;8.68;;;6.70;;
3613;SDS011;1821;50.936;6.854;2023-04-24T02:54:30;9.10;;;6.82;;
3613;SDS011;1821;50.936;6.854;2023-04-24T02:55:12;9.57;;;6.65;;
3613;SDS011;1821;50.936;6.854;2023-04-24T02:55:54;10.10;;;6.10;;
3613;SDS011;1821;50.936;6.854;2023-04-24T02:56:36;8.40;;;6.38;;
3613;SDS011;1821;50.936;6.854;2023-04-24T02:57:20;10.32;;;6.38;;
3613;SDS011;1821;50.936;6.854;2023-04-24T02:58:02;9.68;;;6.20;;
3613;SDS011;1821;50.936;6.854;2023-04-24T02:58:44;9.50;;;6.63;;
3613;SDS011;1821;50.936;6.854;2023-04-24T02:59:26;10.52;;;6.50;;
3613;SDS011;1821;50.936;6.854;2023-04-24T03:00:10;8.80;;;6.70;;
3613;SDS011;1821;50.936;6.854;2023-04-24T03:00:53;8.00;;;6.20;;
3613;SDS011;1821;50.936;6.854;2023-04-24T03:01:37;9.30;;;6.22;;
3613;SDS011;1821;50.936;6.854;2023-04-24T03:02:19;10.30;;;7.00;;
3613;SDS011;1821;50.936;6.854;2023-04-24T03:03:02;11.20;;;7.93;;
3613;SDS011;1821;50.936;6.854;2023-04-24T03:03:44;10.43;;;7.45;;
3613;SDS011;1821;50.936;6.854;2023-04-24T03:04:26;9.25;;;7.30;;
3613;SDS011;1821;50.936;6.854;2023-04-24T03:05:09;9.90;;;7.85;;
3613;SDS011;1821;50.936;6.854;2023-04-24T03:05:53;10.60;;;7.65;;
3613;SDS011;1821;50.936;6.854;2023-04-24T03:06:35;12.10;;;8.23;;
3613;SDS011;1821;50.936;6.854;2023-04-24T03:07:19;10.20;;;8.10;;
3613;SDS011;1821;50.936;6.854;2023-04-24T03:08:02;9.52;;;7.80;;
3613;SDS011;1821;50.936;6.854;2023-04-24T03:08:44;8.85;;;7.63;;
3613;SDS011;1821;50.936;6.854;2023-04-24T03:09:25;10.60;;;7.00;;
3613;SDS011;1821;50.936;6.854;2023-04-24T03:10:07;10.15;;;7.05;;
3613;SDS011;1821;50.936;6.854;2023-04-24T03:10:52;9.40;;;7.47;;
3613;SDS011;1821;50.936;6.854;2023-04-24T03:11:34;8.82;;;7.35;;
3613;SDS011;1821;50.936;6.854;2023-04-24T03:12:16;8.98;;;7.25;;
3613;SDS011;1821;50.936;6.854;2023-04-24T03:12:59;8.52;;;7.63;;
3613;SDS011;1821;50.936;6.854;2023-04-24T03:13:41;9.80;;;7.93;;
3613;SDS011;1821;50.936;6.854;2023-04-24T03:14:22;9.60;;;7.60;;
3613;SDS011;1821;50.936;6.854;2023-04-24T03:15:04;10.18;;;7.43;;
3613;SDS011;1821;50.936;6.854;2023-04-24T03:15:49;12.23;;;8.65;;
3613;SDS011;1821;50.936;6.854;2023-04-24T03:16:31;10.43;;;7.85;;
3613;SDS011;1821;50.936;6.854;2023-04-24T03:17:14;9.20;;;7.93;;
3613;SDS011;1821;50.936;6.854;2023-04-24T03:17:56;12.75;;;8.85;;
3613;SDS011;1821;50.936;6.854;2023-04-24T03:18:38;12.90;;;8.40;;
3613;SDS011;1821;50.936;6.854;2023-04-24T03:19:20;10.68;;;8.48;;
3613;SDS011;1821;50.936;6.854;2023-04-24T03:20:02;8.68;;;7.60;;
3613;SDS011;1821;50.936;6.854;2023-04-24T03:20:46;9.88;;;8.63;;
3613;SDS011;1821;50.936;6.854;2023-04-24T03:21:31;9.40;;;7.78;;
3613;SDS011;1821;50.936;6.854;2023-04-24T03:22:12;11.10;;;8.10;;
3613;SDS011;1821;50.936;6.854;2023-04-24T03:22:57;10.52;;;8.60;;
3613;SDS011;1821;50.936;6.854;2023-04-24T03:23:39;10.68;;;8.38;;
3613;SDS011;1821;50.936;6.854;2023-04-24T03:24:20;10.25;;;7.93;;
3613;SDS011;1821;50.936;6.854;2023-04-24T03:25:03;10.52;;;8.45;;
3613;SDS011;1821;50.936;6.854;2023-04-24T03:25:46;14.15;;;8.63;;
3613;SDS011;1821;50.936;6.854;2023-04-24T03:26:29;10.90;;;7.65;;
3613;SDS011;1821;50.936;6.854;2023-04-24T03:27:11;9.15;;;7.72;;
3613;SDS011;1821;50.936;6.854;2023-04-24T03:27:56;11.10;;;8.40;;
3613;SDS011;1821;50.936;6.854;2023-04-24T03:28:37;9.95;;;7.95;;
3613;SDS011;1821;50.936;6.854;2023-04-24T03:29:22;9.50;;;7.95;;
3613;SDS011;1821;50.936;6.854;2023-04-24T03:30:05;11.32;;;9.13;;
3613;SDS011;1821;50.936;6.854;2023-04-24T03:30:50;11.95;;;9.20;;
3613;SDS011;1821;50.936;6.854;2023-04-24T03:31:33;11.35;;;8.57;;
3613;SDS011;1821;50.936;6.854;2023-04-24T03:32:17;10.18;;;8.60;;
3613;SDS011;1821;50.936;6.854;2023-04-24T03:32:59;9.63;;;8.63;;
3613;SDS011;1821;50.936;6.854;2023-04-24T03:33:42;12.23;;;8.75;;
3613;SDS011;1821;50.936;6.854;2023-04-24T03:34:24;11.05;;;8.60;;
3613;SDS011;1821;50.936;6.854;2023-04-24T03:35:06;10.27;;;9.23;;
3613;SDS011;1821;50.936;6.854;2023-04-24T03:35:49;11.38;;;8.95;;
3613;SDS011;1821;50.936;6.854;2023-04-24T03:36:31;11.35;;;8.55;;
3613;SDS011;1821;50.936;6.854;2023-04-24T03:37:15;12.55;;;8.50;;
3613;SDS011;1821;50.936;6.854;2023-04-24T03:37:57;14.23;;;8.80;;
3613;SDS011;1821;50.936;6.854;2023-04-24T03:38:40;12.88;;;8.50;;
3613;SDS011;1821;50.936;6.854;2023-04-24T03:39:22;11.15;;;8.98;;
3613;SDS011;1821;50.936;6.854;2023-04-24T03:40:04;9.57;;;8.55;;
3613;SDS011;1821;50.936;6.854;2023-04-24T03:40:49;11.13;;;8.20;;
3613;SDS011;1821;50.936;6.854;2023-04-24T03:41:31;11.48;;;8.30;;
3613;SDS011;1821;50.936;6.854;2023-04-24T03:42:16;11.80;;;8.52;;
3613;SDS011;1821;50.936;6.854;2023-04-24T03:42:57;11.43;;;8.95;;
3613;SDS011;1821;50.936;6.854;2023-04-24T03:43:40;12.88;;;8.57;;
3613;SDS011;1821;50.936;6.854;2023-04-24T03:44:22;10.77;;;8.45;;
3613;SDS011;1821;50.936;6.854;2023-04-24T03:45:04;9.45;;;8.30;;
3613;SDS011;1821;50.936;6.854;2023-04-24T03:45:46;8.80;;;7.90;;
3613;SDS011;1821;50.936;6.854;2023-04-24T03:46:31;9.05;;;7.85;;
3613;SDS011;1821;50.936;6.854;2023-04-24T03:47:13;11.20;;;8.10;;
3613;SDS011;1821;50.936;6.854;2023-04-24T03:47:55;9.90;;;7.40;;
3613;SDS011;1821;50.936;6.854;2023-04-24T03:48:37;8.57;;;7.32;;
3613;SDS011;1821;50.936;6.854;2023-04-24T03:49:19;9.60;;;7.20;;
3613;SDS011;1821;50.936;6.854;2023-04-24T03:50:01;10.45;;;8.07;;
3613;SDS011;1821;50.936;6.854;2023-04-24T03:50:46;9.90;;;7.45;;
3613;SDS011;1821;50.936;6.854;2023-04-24T03:51:28;10.07;;;7.05;;
3613;SDS011;1821;50.936;6.854;2023-04-24T03:52:11;9.30;;;7.30;;
3613;SDS011;1821;50.936;6.854;2023-04-24T03:52:53;10.80;;;7.65;;
3613;SDS011;1821;50.936;6.854;2023-04-24T03:53:35;12.30;;;7.45;;
3613;SDS011;1821;50.936;6.854;2023-04-24T03:54:19;9.57;;;7.28;;
3613;SDS011;1821;50.936;6.854;2023-04-24T03:55:01;8.95;;;7.55;;
3613;SDS011;1821;50.936;6.854;2023-04-24T03:55:45;9.65;;;7.50;;
3613;SDS011;1821;50.936;6.854;2023-04-24T03:56:27;12.23;;;7.43;;
3613;SDS011;1821;50.936;6.854;2023-04-24T03:57:09;9.50;;;7.30;;
3613;SDS011;1821;50.936;6.854;2023-04-24T03:57:51;9.50;;;7.70;;
3613;SDS011;1821;50.936;6.854;2023-04-24T03:58:36;10.27;;;6.97;;
3613;SDS011;1821;50.936;6.854;2023-04-24T03:59:17;12.70;;;8.13;;
3613;SDS011;1821;50.936;6.854;2023-04-24T03:59:59;8.82;;;7.93;;
3613;SDS011;1821;50.936;6.854;2023-04-24T04:00:42;8.27;;;7.43;;
3613;SDS011;1821;50.936;6.854;2023-04-24T04:01:25;8.70;;;7.00;;
3613;SDS011;1821;50.936;6.854;2023-04-24T04:02:09;9.27;;;7.35;;
3613;SDS011;1821;50.936;6.854;2023-04-24T04:02:51;9.07;;;7.25;;
3613;SDS011;1821;50.936;6.854;2023-04-24T04:03:33;11.68;;;7.63;;
3613;SDS011;1821;50.936;6.854;2023-04-24T04:04:16;9.02;;;7.68;;
3613;SDS011;1821;50.936;6.854;2023-04-24T04:04:58;8.93;;;7.32;;
3613;SDS011;1821;50.936;6.854;2023-04-24T04:05:40;7.53;;;6.65;;
3613;SDS011;1821;50.936;6.854;2023-04-24T04:06:22;9.02;;;6.82;;
3613;SDS011;1821;50.936;6.854;2023-04-24T04:07:04;7.50;;;6.75;;
3613;SDS011;1821;50.936;6.854;2023-04-24T04:07:46;8.82;;;6.57;;
3613;SDS011;1821;50.936;6.854;2023-04-24T04:08:30;9.13;;;6.80;;
3613;SDS011;1821;50.936;6.854;2023-04-24T04:09:12;9.70;;;7.45;;
3613;SDS011;1821;50.936;6.854;2023-04-24T04:09:54;7.95;;;6.97;;
3613;SDS011;1821;50.936;6.854;2023-04-24T04:10:36;8.38;;;6.80;;
3613;SDS011;1821;50.936;6.854;2023-04-24T04:11:21;8.30;;;7.50;;
3613;SDS011;1821;50.936;6.854;2023-04-24T04:12:02;8.82;;;7.50;;
3613;SDS011;1821;50.936;6.854;2023-04-24T04:12:44;10.75;;;7.40;;
3613;SDS011;1821;50.936;6.854;2023-04-24T04:13:26;10.63;;;7.45;;
3613;SDS011;1821;50.936;6.854;2023-04-24T04:14:08;10.18;;;7.40;;
3613;SDS011;1821;50.936;6.854;2023-04-24T04:14:52;10.40;;;8.30;;
3613;SDS011;1821;50.936;6.854;2023-04-24T04:15:34;9.27;;;8.38;;
3613;SDS011;1821;50.936;6.854;2023-04-24T04:16:16;10.60;;;8.35;;
3613;SDS011;1821;50.936;6.854;2023-04-24T04:16:58;11.13;;;7.28;;
3613;SDS011;1821;50.936;6.854;2023-04-24T04:17:40;10.95;;;6.70;;
3613;SDS011;1821;50.936;6.854;2023-04-24T04:18:22;13.68;;;7.80;;
3613;SDS011;1821;50.936;6.854;2023-04-24T04:19:04;9.82;;;7.45;;
3613;SDS011;1821;50.936;6.854;2023-04-24T04:19:46;9.50;;;6.95;;
3613;SDS011;1821;50.936;6.854;2023-04-24T04:20:30;9.27;;;7.50;;
3613;SDS011;1821;50.936;6.854;2023-04-24T04:21:14;10.05;;;7.97;;
3613;SDS011;1821;50.936;6.854;2023-04-24T04:21:56;10.38;;;7.90;;
3613;SDS011;1821;50.936;6.854;2023-04-24T04:22:41;11.48;;;8.10;;
3613;SDS011;1821;50.936;6.854;2023-04-24T04:23:24;10.30;;;7.68;;
3613;SDS011;1821;50.936;6.854;2023-04-24T04:24:07;11.70;;;8.07;;
3613;SDS011;1821;50.936;6.854;2023-04-24T04:24:48;12.25;;;7.70;;